createdAt,value
2017-10-03T00:00:19.158Z,16.9
2017-10-03T00:01:21.919Z,16.9
2017-10-03T00:02:24.363Z,16.9
2017-10-03T00:03:26.780Z,16.9
2017-10-03T00:04:29.208Z,16.8
2017-10-03T00:05:31.637Z,16.8
2017-10-03T00:06:34.070Z,16.8
2017-10-03T00:07:36.499Z,16.8
2017-10-03T00:08:38.941Z,16.8
2017-10-03T00:09:41.363Z,16.8
2017-10-03T00:10:43.811Z,16.8
2017-10-03T00:11:46.239Z,16.8
2017-10-03T00:12:48.676Z,16.8
2017-10-03T00:13:51.445Z,16.8
2017-10-03T00:14:53.877Z,16.8
2017-10-03T00:15:56.300Z,16.8
2017-10-03T00:16:58.740Z,16.8
2017-10-03T00:18:01.171Z,16.8
2017-10-03T00:19:03.602Z,16.8
2017-10-03T00:20:06.034Z,16.8
2017-10-03T00:21:08.468Z,16.8
2017-10-03T00:22:10.900Z,16.8
2017-10-03T00:23:13.321Z,16.8
2017-10-03T00:24:15.756Z,16.7
2017-10-03T00:25:18.187Z,16.7
2017-10-03T00:26:20.616Z,16.7
2017-10-03T00:27:23.051Z,16.7
2017-10-03T00:28:25.820Z,16.7
2017-10-03T00:29:28.247Z,16.7
2017-10-03T00:30:30.686Z,16.7
2017-10-03T00:31:33.113Z,16.7
2017-10-03T00:32:35.539Z,16.7
2017-10-03T00:33:37.982Z,16.6
2017-10-03T00:34:40.402Z,16.7
2017-10-03T00:35:42.835Z,16.7
2017-10-03T00:36:45.272Z,16.6
2017-10-03T00:37:47.700Z,16.6
2017-10-03T00:38:50.129Z,16.6
2017-10-03T00:39:52.558Z,16.6
2017-10-03T00:40:54.986Z,16.6
2017-10-03T00:41:57.421Z,16.6
2017-10-03T00:42:59.854Z,16.6
2017-10-03T00:44:02.268Z,16.6
2017-10-03T00:45:04.694Z,16.6
2017-10-03T00:46:07.133Z,16.6
2017-10-03T00:47:09.557Z,16.6
2017-10-03T00:48:11.983Z,16.6
2017-10-03T00:49:14.433Z,16.6
2017-10-03T00:50:17.199Z,16.6
2017-10-03T00:51:19.620Z,16.6
2017-10-03T00:52:22.050Z,16.6
2017-10-03T00:53:24.479Z,16.6
2017-10-03T00:54:26.911Z,16.6
2017-10-03T00:55:29.341Z,16.6
2017-10-03T00:56:31.760Z,16.6
2017-10-03T00:57:34.193Z,16.6
2017-10-03T00:58:36.634Z,16.7
2017-10-03T00:59:39.396Z,16.7
2017-10-03T01:00:41.831Z,16.7
2017-10-03T01:01:44.267Z,16.7
2017-10-03T01:02:46.695Z,16.7
2017-10-03T01:03:49.131Z,16.7
2017-10-03T01:04:51.560Z,16.7
2017-10-03T01:05:53.986Z,16.7
2017-10-03T01:06:56.423Z,16.7
2017-10-03T01:07:58.851Z,16.7
2017-10-03T01:09:01.274Z,16.7
2017-10-03T01:10:03.718Z,16.7
2017-10-03T01:11:06.151Z,16.7
2017-10-03T01:12:08.930Z,16.7
2017-10-03T01:13:11.363Z,16.7
2017-10-03T01:14:13.796Z,16.8
2017-10-03T01:15:16.227Z,16.8
2017-10-03T01:16:18.653Z,16.8
2017-10-03T01:17:21.092Z,16.8
2017-10-03T01:18:23.522Z,16.8
2017-10-03T01:19:25.954Z,16.8
2017-10-03T01:20:28.377Z,16.8
2017-10-03T01:21:30.815Z,16.8
2017-10-03T01:22:33.231Z,16.8
2017-10-03T01:23:35.680Z,16.8
2017-10-03T01:24:38.092Z,16.8
2017-10-03T01:25:40.523Z,16.8
2017-10-03T01:26:43.298Z,16.8
2017-10-03T01:27:45.728Z,16.7
2017-10-03T01:28:48.158Z,16.7
2017-10-03T01:29:50.600Z,16.7
2017-10-03T01:30:53.365Z,16.7
2017-10-03T01:31:55.808Z,16.7
2017-10-03T01:32:58.241Z,16.7
2017-10-03T01:34:00.667Z,16.7
2017-10-03T01:35:03.102Z,16.7
2017-10-03T01:36:05.869Z,16.6
2017-10-03T01:37:08.300Z,16.6
2017-10-03T01:38:11.089Z,16.6
2017-10-03T01:39:13.856Z,16.6
2017-10-03T01:40:16.285Z,16.6
2017-10-03T01:41:18.723Z,16.6
2017-10-03T01:42:21.154Z,16.6
2017-10-03T01:43:23.583Z,16.6
2017-10-03T01:44:26.004Z,16.6
2017-10-03T01:45:28.439Z,16.6
2017-10-03T01:46:30.858Z,16.6
2017-10-03T01:47:33.294Z,16.6
2017-10-03T01:48:35.723Z,16.5
2017-10-03T01:49:38.160Z,16.6
2017-10-03T01:50:40.583Z,16.5
2017-10-03T01:51:43.356Z,16.5
2017-10-03T01:52:46.468Z,16.5
2017-10-03T01:53:48.901Z,16.5
2017-10-03T01:54:51.326Z,16.5
2017-10-03T01:55:53.754Z,16.4
2017-10-03T01:56:56.178Z,16.4
2017-10-03T01:57:58.959Z,16.4
2017-10-03T01:59:01.390Z,16.4
2017-10-03T02:00:04.183Z,16.4
2017-10-03T02:01:06.615Z,16.4
2017-10-03T02:02:09.051Z,16.4
2017-10-03T02:03:11.481Z,16.4
2017-10-03T02:04:13.911Z,16.4
2017-10-03T02:05:16.334Z,16.4
2017-10-03T02:06:18.765Z,16.4
2017-10-03T02:07:21.213Z,16.4
2017-10-03T02:08:23.627Z,16.4
2017-10-03T02:09:26.059Z,16.4
2017-10-03T02:10:28.489Z,16.4
2017-10-03T02:11:30.919Z,16.4
2017-10-03T02:12:33.351Z,16.4
2017-10-03T02:13:35.781Z,16.4
2017-10-03T02:14:38.202Z,16.4
2017-10-03T02:15:40.640Z,16.4
2017-10-03T02:16:43.069Z,16.4
2017-10-03T02:17:45.501Z,16.4
2017-10-03T02:18:47.925Z,16.4
2017-10-03T02:19:50.365Z,16.4
2017-10-03T02:20:52.795Z,16.4
2017-10-03T02:21:55.214Z,16.4
2017-10-03T02:22:57.648Z,16.4
2017-10-03T02:24:00.073Z,16.4
2017-10-03T02:25:02.502Z,16.4
2017-10-03T02:26:05.291Z,16.4
2017-10-03T02:27:07.717Z,16.4
2017-10-03T02:28:10.513Z,16.4
2017-10-03T02:29:12.962Z,16.4
2017-10-03T02:30:15.386Z,16.4
2017-10-03T02:31:17.813Z,16.4
2017-10-03T02:32:20.249Z,16.4
2017-10-03T02:33:23.007Z,16.4
2017-10-03T02:34:25.436Z,16.4
2017-10-03T02:35:27.871Z,16.4
2017-10-03T02:36:30.302Z,16.5
2017-10-03T02:37:32.743Z,16.5
2017-10-03T02:38:35.528Z,16.5
2017-10-03T02:39:37.952Z,16.5
2017-10-03T02:40:40.731Z,16.5
2017-10-03T02:41:43.158Z,16.5
2017-10-03T02:42:45.581Z,16.5
2017-10-03T02:43:48.358Z,16.5
2017-10-03T02:44:50.797Z,16.6
2017-10-03T02:45:53.568Z,16.5
2017-10-03T02:46:55.997Z,16.5
2017-10-03T02:47:58.439Z,16.6
2017-10-03T02:49:00.872Z,16.6
2017-10-03T02:50:03.643Z,16.6
2017-10-03T02:51:06.075Z,16.6
2017-10-03T02:52:08.500Z,16.6
2017-10-03T02:53:10.941Z,16.5
2017-10-03T02:54:13.374Z,16.6
2017-10-03T02:55:15.795Z,16.5
2017-10-03T02:56:18.578Z,16.5
2017-10-03T02:57:21.016Z,16.6
2017-10-03T02:58:23.794Z,16.5
2017-10-03T02:59:26.231Z,16.5
2017-10-03T03:00:28.669Z,16.5
2017-10-03T03:01:31.100Z,16.5
2017-10-03T03:02:33.535Z,16.5
2017-10-03T03:03:35.964Z,16.5
2017-10-03T03:04:38.389Z,16.5
2017-10-03T03:05:40.825Z,16.5
2017-10-03T03:06:43.257Z,16.5
2017-10-03T03:07:45.684Z,16.5
2017-10-03T03:08:48.113Z,16.5
2017-10-03T03:09:50.544Z,16.5
2017-10-03T03:10:52.974Z,16.5
2017-10-03T03:11:55.413Z,16.5
2017-10-03T03:12:57.847Z,16.5
2017-10-03T03:14:00.274Z,16.5
2017-10-03T03:15:03.045Z,16.5
2017-10-03T03:16:05.480Z,16.5
2017-10-03T03:17:07.906Z,16.5
2017-10-03T03:18:10.343Z,16.5
2017-10-03T03:19:12.768Z,16.5
2017-10-03T03:20:15.540Z,16.5
2017-10-03T03:21:17.961Z,16.5
2017-10-03T03:22:20.397Z,16.5
2017-10-03T03:23:22.830Z,16.5
2017-10-03T03:24:25.262Z,16.4
2017-10-03T03:25:27.685Z,16.4
2017-10-03T03:26:30.117Z,16.4
2017-10-03T03:27:32.549Z,16.4
2017-10-03T03:28:34.990Z,16.4
2017-10-03T03:29:37.407Z,16.4
2017-10-03T03:30:40.205Z,16.4
2017-10-03T03:31:42.632Z,16.4
2017-10-03T03:32:45.059Z,16.4
2017-10-03T03:33:47.486Z,16.4
2017-10-03T03:34:50.614Z,16.4
2017-10-03T03:35:53.041Z,16.4
2017-10-03T03:36:55.481Z,16.4
2017-10-03T03:37:57.898Z,16.4
2017-10-03T03:39:00.329Z,16.4
2017-10-03T03:40:02.768Z,16.3
2017-10-03T03:41:05.200Z,16.3
2017-10-03T03:42:07.632Z,16.3
2017-10-03T03:43:10.064Z,16.3
2017-10-03T03:44:12.487Z,16.3
2017-10-03T03:45:14.913Z,16.3
2017-10-03T03:46:17.350Z,16.3
2017-10-03T03:47:19.776Z,16.3
2017-10-03T03:48:22.592Z,16.3
2017-10-03T03:49:25.016Z,16.3
2017-10-03T03:50:27.441Z,16.2
2017-10-03T03:51:29.875Z,16.2
2017-10-03T03:52:32.314Z,16.2
2017-10-03T03:53:34.738Z,16.2
2017-10-03T03:54:37.179Z,16.2
2017-10-03T03:55:39.608Z,16.1
2017-10-03T03:56:42.039Z,16.1
2017-10-03T03:57:44.466Z,16.1
2017-10-03T03:58:46.889Z,16.1
2017-10-03T03:59:49.319Z,16.1
2017-10-03T04:00:51.750Z,16
2017-10-03T04:01:54.173Z,16.1
2017-10-03T04:02:56.601Z,16
2017-10-03T04:03:59.035Z,16.1
2017-10-03T04:05:01.464Z,16.1
2017-10-03T04:06:03.890Z,16.1
2017-10-03T04:07:06.333Z,16.1
2017-10-03T04:08:09.106Z,16.1
2017-10-03T04:09:11.544Z,16.1
2017-10-03T04:10:13.971Z,16.1
2017-10-03T04:11:16.388Z,16.1
2017-10-03T04:12:18.819Z,16.1
2017-10-03T04:13:21.257Z,16.1
2017-10-03T04:14:23.685Z,16.1
2017-10-03T04:15:26.120Z,16.1
2017-10-03T04:16:28.555Z,16.1
2017-10-03T04:17:30.985Z,16
2017-10-03T04:18:33.407Z,16
2017-10-03T04:19:35.835Z,16
2017-10-03T04:20:38.272Z,16
2017-10-03T04:21:40.694Z,16
2017-10-03T04:22:43.131Z,16
2017-10-03T04:23:45.556Z,16
2017-10-03T04:24:47.984Z,16
2017-10-03T04:25:50.418Z,16
2017-10-03T04:26:52.847Z,16
2017-10-03T04:27:55.262Z,16
2017-10-03T04:28:57.697Z,16
2017-10-03T04:30:00.119Z,16
2017-10-03T04:31:02.548Z,16
2017-10-03T04:32:04.978Z,16
2017-10-03T04:33:07.746Z,16
2017-10-03T04:34:10.179Z,16
2017-10-03T04:35:12.620Z,16.1
2017-10-03T04:36:15.038Z,16
2017-10-03T04:37:17.829Z,16
2017-10-03T04:38:20.254Z,16
2017-10-03T04:39:22.690Z,16
2017-10-03T04:40:25.117Z,16
2017-10-03T04:41:27.548Z,16
2017-10-03T04:42:29.971Z,16
2017-10-03T04:43:32.743Z,16
2017-10-03T04:44:35.183Z,16
2017-10-03T04:45:37.952Z,16
2017-10-03T04:46:40.379Z,16
2017-10-03T04:47:42.811Z,16
2017-10-03T04:48:45.246Z,16
2017-10-03T04:49:47.664Z,16
2017-10-03T04:50:50.107Z,16
2017-10-03T04:51:52.528Z,16
2017-10-03T04:52:54.961Z,16
2017-10-03T04:53:57.396Z,15.9
2017-10-03T04:54:59.825Z,15.9
2017-10-03T04:56:02.591Z,15.9
2017-10-03T04:57:05.030Z,15.9
2017-10-03T04:58:07.453Z,15.9
2017-10-03T04:59:09.892Z,15.8
2017-10-03T05:00:12.325Z,15.8
2017-10-03T05:01:14.746Z,15.8
2017-10-03T05:02:17.184Z,15.8
2017-10-03T05:03:19.618Z,15.7
2017-10-03T05:04:22.049Z,15.7
2017-10-03T05:05:24.815Z,15.7
2017-10-03T05:06:27.300Z,15.7
2017-10-03T05:07:29.734Z,15.7
2017-10-03T05:08:32.180Z,15.7
2017-10-03T05:09:34.611Z,15.7
2017-10-03T05:10:37.037Z,15.7
2017-10-03T05:11:39.464Z,15.7
2017-10-03T05:12:41.905Z,15.7
2017-10-03T05:13:44.334Z,15.7
2017-10-03T05:14:46.757Z,15.6
2017-10-03T05:15:49.202Z,15.6
2017-10-03T05:16:51.640Z,15.6
2017-10-03T05:17:54.069Z,15.6
2017-10-03T05:18:56.502Z,15.6
2017-10-03T05:19:58.933Z,15.5
2017-10-03T05:21:01.365Z,15.5
2017-10-03T05:22:03.794Z,15.5
2017-10-03T05:23:06.212Z,15.5
2017-10-03T05:24:08.648Z,15.5
2017-10-03T05:25:11.424Z,15.5
2017-10-03T05:26:13.851Z,15.5
2017-10-03T05:27:16.626Z,15.5
2017-10-03T05:28:19.062Z,15.5
2017-10-03T05:29:21.486Z,15.5
2017-10-03T05:30:24.261Z,15.5
2017-10-03T05:31:26.690Z,15.5
2017-10-03T05:32:29.114Z,15.5
2017-10-03T05:33:31.550Z,15.5
2017-10-03T05:34:33.986Z,15.5
2017-10-03T05:35:36.407Z,15.5
2017-10-03T05:36:38.849Z,15.5
2017-10-03T05:37:41.278Z,15.5
2017-10-03T05:38:43.710Z,15.5
2017-10-03T05:39:46.139Z,15.5
2017-10-03T05:40:48.569Z,15.5
2017-10-03T05:41:51.000Z,15.5
2017-10-03T05:42:53.434Z,15.5
2017-10-03T05:43:55.876Z,15.5
2017-10-03T05:44:58.308Z,15.5
2017-10-03T05:46:00.732Z,15.5
2017-10-03T05:47:03.155Z,15.5
2017-10-03T05:48:05.928Z,15.5
2017-10-03T05:49:08.363Z,15.5
2017-10-03T05:50:11.141Z,15.5
2017-10-03T05:51:13.558Z,15.5
2017-10-03T05:52:15.991Z,15.5
2017-10-03T05:53:18.428Z,15.5
2017-10-03T05:54:20.857Z,15.5
2017-10-03T05:55:23.287Z,15.5
2017-10-03T05:56:29.652Z,15.5
2017-10-03T05:57:37.692Z,15.5
2017-10-03T05:58:40.135Z,15.5
2017-10-03T05:59:42.564Z,15.5
2017-10-03T06:00:45.325Z,15.5
2017-10-03T06:01:47.757Z,15.5
2017-10-03T06:02:50.192Z,15.5
2017-10-03T06:03:52.614Z,15.4
2017-10-03T06:04:55.056Z,15.4
2017-10-03T06:05:57.472Z,15.4
2017-10-03T06:07:00.249Z,15.4
2017-10-03T06:08:02.689Z,15.4
2017-10-03T06:09:05.125Z,15.5
2017-10-03T06:10:07.552Z,15.4
2017-10-03T06:11:09.981Z,15.4
2017-10-03T06:12:12.401Z,15.4
2017-10-03T06:13:14.831Z,15.5
2017-10-03T06:14:17.280Z,15.5
2017-10-03T06:15:19.701Z,15.4
2017-10-03T06:16:22.129Z,15.4
2017-10-03T06:17:24.543Z,15.5
2017-10-03T06:18:26.971Z,15.5
2017-10-03T06:19:29.393Z,15.5
2017-10-03T06:20:31.829Z,15.5
2017-10-03T06:21:34.604Z,15.5
2017-10-03T06:22:37.364Z,15.6
2017-10-03T06:23:39.790Z,15.6
2017-10-03T06:24:42.232Z,15.6
2017-10-03T06:25:44.661Z,15.6
2017-10-03T06:26:47.090Z,15.6
2017-10-03T06:27:49.527Z,15.7
2017-10-03T06:28:51.956Z,15.7
2017-10-03T06:29:54.399Z,15.7
2017-10-03T06:30:56.832Z,15.7
2017-10-03T06:31:59.252Z,15.7
2017-10-03T06:33:02.031Z,15.8
2017-10-03T06:34:04.461Z,15.8
2017-10-03T06:35:06.899Z,15.8
2017-10-03T06:36:09.323Z,15.8
2017-10-03T06:37:12.091Z,15.9
2017-10-03T06:38:14.523Z,15.9
2017-10-03T06:39:16.971Z,15.9
2017-10-03T06:40:19.393Z,16
2017-10-03T06:41:21.825Z,16
2017-10-03T06:42:24.255Z,16.1
2017-10-03T06:43:27.033Z,16.1
2017-10-03T06:44:29.467Z,16.1
2017-10-03T06:45:31.899Z,16.1
2017-10-03T06:46:34.331Z,16.2
2017-10-03T06:47:36.760Z,16.2
2017-10-03T06:48:39.178Z,16.2
2017-10-03T06:49:41.611Z,16.2
2017-10-03T06:50:44.058Z,16.3
2017-10-03T06:51:46.577Z,16.3
2017-10-03T06:52:49.308Z,16.2
2017-10-03T06:53:52.767Z,16.2
2017-10-03T06:54:55.340Z,16.3
2017-10-03T06:55:57.779Z,16.2
2017-10-03T06:57:00.209Z,16.3
2017-10-03T06:58:02.639Z,16.3
2017-10-03T06:59:05.079Z,16.3
2017-10-03T07:00:07.509Z,16.4
2017-10-03T07:01:09.942Z,16.4
2017-10-03T07:02:12.370Z,16.4
2017-10-03T07:03:14.792Z,16.4
2017-10-03T07:04:17.225Z,16.4
2017-10-03T07:05:19.656Z,16.4
2017-10-03T07:06:22.076Z,16.5
2017-10-03T07:07:24.515Z,16.5
2017-10-03T07:08:26.977Z,16.5
2017-10-03T07:09:29.423Z,16.6
2017-10-03T07:10:31.862Z,16.6
2017-10-03T07:11:34.289Z,16.7
2017-10-03T07:12:36.708Z,16.7
2017-10-03T07:13:39.151Z,16.7
2017-10-03T07:14:41.583Z,16.7
2017-10-03T07:15:44.019Z,16.8
2017-10-03T07:16:46.443Z,16.8
2017-10-03T07:17:48.876Z,16.8
2017-10-03T07:18:51.313Z,16.8
2017-10-03T07:19:53.749Z,16.8
2017-10-03T07:20:56.176Z,16.8
2017-10-03T07:21:58.611Z,16.8
2017-10-03T07:23:01.034Z,16.8
2017-10-03T07:24:03.470Z,16.9
2017-10-03T07:25:05.901Z,16.9
2017-10-03T07:26:08.325Z,16.9
2017-10-03T07:27:10.751Z,17
2017-10-03T07:28:13.533Z,16.9
2017-10-03T07:29:15.956Z,17
2017-10-03T07:30:18.394Z,16.9
2017-10-03T07:31:20.809Z,16.9
2017-10-03T07:32:23.239Z,16.9
2017-10-03T07:33:25.674Z,16.9
2017-10-03T07:34:28.110Z,16.9
2017-10-03T07:35:30.541Z,17
2017-10-03T07:36:32.969Z,17
2017-10-03T07:37:35.399Z,17.1
2017-10-03T07:38:37.845Z,17.1
2017-10-03T07:39:40.275Z,17.2
2017-10-03T07:40:42.699Z,17.2
2017-10-03T07:41:45.134Z,17.3
2017-10-03T07:42:47.560Z,17.3
2017-10-03T07:43:49.997Z,17.4
2017-10-03T07:44:52.430Z,17.5
2017-10-03T07:45:54.854Z,17.7
2017-10-03T07:46:57.291Z,17.8
2017-10-03T07:47:59.726Z,17.9
2017-10-03T07:49:02.153Z,18
2017-10-03T07:50:04.598Z,18.1
2017-10-03T07:51:07.033Z,18.1
2017-10-03T07:52:09.463Z,18.2
2017-10-03T07:53:12.236Z,18.3
2017-10-03T07:54:14.667Z,18.4
2017-10-03T07:55:17.441Z,18.6
2017-10-03T07:56:19.882Z,18.7
2017-10-03T07:57:22.313Z,18.7
2017-10-03T07:58:24.748Z,18.8
2017-10-03T07:59:27.175Z,18.8
2017-10-03T08:00:29.597Z,18.9
2017-10-03T08:01:32.034Z,18.9
2017-10-03T08:02:34.480Z,19
2017-10-03T08:03:36.911Z,19
2017-10-03T08:04:39.357Z,19.2
2017-10-03T08:05:41.790Z,19.2
2017-10-03T08:06:44.227Z,19.3
2017-10-03T08:07:46.668Z,19.3
2017-10-03T08:08:49.105Z,19.5
2017-10-03T08:09:51.541Z,19.5
2017-10-03T08:10:53.967Z,19.6
2017-10-03T08:11:56.414Z,19.7
2017-10-03T08:12:58.848Z,19.8
2017-10-03T08:14:01.280Z,19.9
2017-10-03T08:15:03.724Z,20
2017-10-03T08:16:06.502Z,20.1
2017-10-03T08:17:08.937Z,20.1
2017-10-03T08:18:11.371Z,20.1
2017-10-03T08:19:13.802Z,20.2
2017-10-03T08:20:16.237Z,20.2
2017-10-03T08:21:18.681Z,20.2
2017-10-03T08:22:21.110Z,20.2
2017-10-03T08:23:23.548Z,20.1
2017-10-03T08:24:25.971Z,20.1
2017-10-03T08:25:28.410Z,20.1
2017-10-03T08:26:30.857Z,20.2
2017-10-03T08:27:33.290Z,20.2
2017-10-03T08:28:35.714Z,20.1
2017-10-03T08:29:38.154Z,20.1
2017-10-03T08:30:40.593Z,20.1
2017-10-03T08:31:43.026Z,20.1
2017-10-03T08:32:45.467Z,20
2017-10-03T08:33:47.897Z,19.9
2017-10-03T08:34:50.330Z,19.9
2017-10-03T08:35:52.771Z,19.8
2017-10-03T08:36:55.198Z,19.7
2017-10-03T08:37:57.632Z,19.7
2017-10-03T08:39:00.061Z,19.7
2017-10-03T08:40:02.498Z,19.6
2017-10-03T08:41:05.616Z,19.6
2017-10-03T08:42:08.047Z,19.6
2017-10-03T08:43:10.481Z,19.6
2017-10-03T08:44:12.929Z,19.6
2017-10-03T08:45:15.352Z,19.6
2017-10-03T08:46:17.786Z,19.6
2017-10-03T08:47:20.229Z,19.6
2017-10-03T08:48:22.651Z,19.6
2017-10-03T08:49:25.434Z,19.6
2017-10-03T08:50:27.877Z,19.7
2017-10-03T08:51:30.313Z,19.8
2017-10-03T08:52:32.756Z,19.8
2017-10-03T08:53:35.190Z,19.9
2017-10-03T08:54:37.618Z,19.8
2017-10-03T08:55:40.757Z,19.8
2017-10-03T08:56:43.187Z,19.8
2017-10-03T08:57:45.620Z,19.8
2017-10-03T08:58:48.062Z,19.8
2017-10-03T08:59:50.484Z,19.8
2017-10-03T09:00:52.917Z,19.8
2017-10-03T09:01:55.362Z,19.9
2017-10-03T09:02:57.785Z,19.9
2017-10-03T09:04:00.232Z,20
2017-10-03T09:05:02.671Z,20.1
2017-10-03T09:06:05.448Z,20.1
2017-10-03T09:07:07.914Z,20.1
2017-10-03T09:08:10.347Z,20.1
2017-10-03T09:09:13.113Z,20.2
2017-10-03T09:10:15.555Z,20.1
2017-10-03T09:11:17.992Z,20.2
2017-10-03T09:12:20.432Z,20.2
2017-10-03T09:13:22.867Z,20.2
2017-10-03T09:14:25.303Z,20.3
2017-10-03T09:15:27.739Z,20.4
2017-10-03T09:16:30.178Z,20.6
2017-10-03T09:17:32.621Z,20.6
2017-10-03T09:18:35.396Z,20.7
2017-10-03T09:19:37.829Z,20.8
2017-10-03T09:20:40.611Z,20.8
2017-10-03T09:21:43.047Z,20.8
2017-10-03T09:22:45.480Z,20.9
2017-10-03T09:23:47.915Z,20.9
2017-10-03T09:24:50.354Z,20.8
2017-10-03T09:25:52.799Z,20.9
2017-10-03T09:26:55.240Z,20.9
2017-10-03T09:27:57.668Z,21.1
2017-10-03T09:29:00.448Z,21.2
2017-10-03T09:30:02.886Z,21.3
2017-10-03T09:31:05.325Z,21.4
2017-10-03T09:32:07.768Z,21.5
2017-10-03T09:33:10.205Z,21.6
2017-10-03T09:34:12.635Z,21.8
2017-10-03T09:35:15.084Z,22
2017-10-03T09:36:17.524Z,22.1
2017-10-03T09:37:19.957Z,22.1
2017-10-03T09:38:22.395Z,22.1
2017-10-03T09:39:24.840Z,22.1
2017-10-03T09:40:27.285Z,22.1
2017-10-03T09:41:29.726Z,22.1
2017-10-03T09:42:32.152Z,22
2017-10-03T09:43:34.586Z,22
2017-10-03T09:44:37.040Z,21.9
2017-10-03T09:45:39.814Z,21.8
2017-10-03T09:46:42.257Z,21.7
2017-10-03T09:47:44.695Z,21.7
2017-10-03T09:48:47.480Z,21.6
2017-10-03T09:49:49.927Z,21.5
2017-10-03T09:50:52.367Z,21.5
2017-10-03T09:51:54.796Z,21.4
2017-10-03T09:52:57.240Z,21.4
2017-10-03T09:53:59.672Z,21.4
2017-10-03T09:55:02.103Z,21.4
2017-10-03T09:56:04.558Z,21.5
2017-10-03T09:57:06.977Z,21.6
2017-10-03T09:58:09.414Z,21.8
2017-10-03T09:59:12.203Z,22
2017-10-03T10:00:14.641Z,22.1
2017-10-03T10:01:17.080Z,22.2
2017-10-03T10:02:19.527Z,22.3
2017-10-03T10:03:21.952Z,22.3
2017-10-03T10:04:24.391Z,22.3
2017-10-03T10:05:26.829Z,22.3
2017-10-03T10:06:29.271Z,22.4
2017-10-03T10:07:31.703Z,22.5
2017-10-03T10:08:34.486Z,22.5
2017-10-03T10:09:36.931Z,22.5
2017-10-03T10:10:39.365Z,22.5
2017-10-03T10:11:41.806Z,22.6
2017-10-03T10:12:44.240Z,22.7
2017-10-03T10:13:46.686Z,22.8
2017-10-03T10:14:49.119Z,22.8
2017-10-03T10:15:51.573Z,22.9
2017-10-03T10:16:54.001Z,22.9
2017-10-03T10:17:56.451Z,22.8
2017-10-03T10:18:58.890Z,22.8
2017-10-03T10:20:01.329Z,22.8
2017-10-03T10:21:03.769Z,22.8
2017-10-03T10:22:06.206Z,22.9
2017-10-03T10:23:08.640Z,23.1
2017-10-03T10:24:11.428Z,23.3
2017-10-03T10:25:13.863Z,23.5
2017-10-03T10:26:16.303Z,23.7
2017-10-03T10:27:18.748Z,23.9
2017-10-03T10:28:21.184Z,24
2017-10-03T10:29:23.622Z,24.1
2017-10-03T10:30:26.069Z,24.2
2017-10-03T10:31:28.510Z,24.2
2017-10-03T10:32:31.295Z,24.2
2017-10-03T10:33:33.735Z,24.2
2017-10-03T10:34:36.164Z,24.2
2017-10-03T10:35:38.611Z,24.1
2017-10-03T10:36:41.052Z,24.1
2017-10-03T10:37:43.505Z,24.1
2017-10-03T10:38:45.939Z,24
2017-10-03T10:39:48.387Z,24
2017-10-03T10:40:50.823Z,23.9
2017-10-03T10:41:53.263Z,23.8
2017-10-03T10:42:55.699Z,23.7
2017-10-03T10:43:58.144Z,23.6
2017-10-03T10:45:00.586Z,23.5
2017-10-03T10:46:03.033Z,23.3
2017-10-03T10:47:05.466Z,23.2
2017-10-03T10:48:07.908Z,23.2
2017-10-03T10:49:10.680Z,23.1
2017-10-03T10:50:13.126Z,23.1
2017-10-03T10:51:15.557Z,23
2017-10-03T10:52:17.996Z,23
2017-10-03T10:53:20.434Z,23.1
2017-10-03T10:54:22.879Z,23.1
2017-10-03T10:55:25.318Z,23.2
2017-10-03T10:56:27.758Z,23.1
2017-10-03T10:57:30.197Z,23.1
2017-10-03T10:58:32.989Z,23.1
2017-10-03T10:59:35.430Z,23.2
2017-10-03T11:00:37.864Z,23.1
2017-10-03T11:01:40.309Z,23.1
2017-10-03T11:02:42.748Z,23.1
2017-10-03T11:03:45.182Z,23.1
2017-10-03T11:04:47.621Z,23.2
2017-10-03T11:05:50.438Z,23.4
2017-10-03T11:06:52.877Z,23.5
2017-10-03T11:07:55.325Z,23.8
2017-10-03T11:08:57.761Z,24
2017-10-03T11:10:00.199Z,24.2
2017-10-03T11:11:02.639Z,24.4
2017-10-03T11:12:05.082Z,24.5
2017-10-03T11:13:07.516Z,24.5
2017-10-03T11:14:09.962Z,24.5
2017-10-03T11:15:12.417Z,24.4
2017-10-03T11:16:14.854Z,24.4
2017-10-03T11:17:17.291Z,24.4
2017-10-03T11:18:19.740Z,24.3
2017-10-03T11:19:22.178Z,24.3
2017-10-03T11:20:24.623Z,24.2
2017-10-03T11:21:27.065Z,24.2
2017-10-03T11:22:29.502Z,24.1
2017-10-03T11:23:31.950Z,24.2
2017-10-03T11:24:34.389Z,24.2
2017-10-03T11:25:37.166Z,24.2
2017-10-03T11:26:39.619Z,24.2
2017-10-03T11:27:42.058Z,24.3
2017-10-03T11:28:44.496Z,24.4
2017-10-03T11:29:46.937Z,24.5
2017-10-03T11:30:49.371Z,24.6
2017-10-03T11:31:51.812Z,24.6
2017-10-03T11:32:54.260Z,24.7
2017-10-03T11:33:56.686Z,24.8
2017-10-03T11:34:59.128Z,24.8
2017-10-03T11:36:01.571Z,24.7
2017-10-03T11:37:04.359Z,24.6
2017-10-03T11:38:06.804Z,24.5
2017-10-03T11:39:09.242Z,24.5
2017-10-03T11:40:11.684Z,24.5
2017-10-03T11:41:14.136Z,24.4
2017-10-03T11:42:16.574Z,24.4
2017-10-03T11:43:19.020Z,24.4
2017-10-03T11:44:21.466Z,24.4
2017-10-03T11:45:23.905Z,24.4
2017-10-03T11:46:26.357Z,24.4
2017-10-03T11:47:28.798Z,24.5
2017-10-03T11:48:31.232Z,24.5
2017-10-03T11:49:34.024Z,24.7
2017-10-03T11:50:36.470Z,24.7
2017-10-03T11:51:38.917Z,24.7
2017-10-03T11:52:41.364Z,24.7
2017-10-03T11:53:43.818Z,24.7
2017-10-03T11:54:46.260Z,24.7
2017-10-03T11:55:48.708Z,24.8
2017-10-03T11:56:51.151Z,24.9
2017-10-03T11:57:53.593Z,24.9
2017-10-03T11:58:56.029Z,25
2017-10-03T11:59:58.473Z,25.1
2017-10-03T12:01:00.909Z,25.2
2017-10-03T12:02:03.352Z,25.3
2017-10-03T12:03:05.794Z,25.4
2017-10-03T12:04:08.244Z,25.5
2017-10-03T12:05:10.688Z,25.6
2017-10-03T12:06:13.142Z,25.6
2017-10-03T12:07:15.585Z,25.5
2017-10-03T12:08:18.031Z,25.5
2017-10-03T12:09:20.479Z,25.4
2017-10-03T12:10:22.918Z,25.3
2017-10-03T12:11:25.366Z,25.2
2017-10-03T12:12:27.814Z,25
2017-10-03T12:13:30.253Z,24.9
2017-10-03T12:14:32.698Z,24.8
2017-10-03T12:15:35.143Z,24.7
2017-10-03T12:16:37.585Z,24.6
2017-10-03T12:17:40.026Z,24.5
2017-10-03T12:18:42.461Z,24.4
2017-10-03T12:19:44.892Z,24.3
2017-10-03T12:20:47.676Z,24.1
2017-10-03T12:21:50.116Z,24
2017-10-03T12:22:52.558Z,23.8
2017-10-03T12:23:55.008Z,23.7
2017-10-03T12:24:57.445Z,23.6
2017-10-03T12:25:59.878Z,23.5
2017-10-03T12:27:02.314Z,23.4
2017-10-03T12:28:04.754Z,23.3
2017-10-03T12:29:07.190Z,23.3
2017-10-03T12:30:09.635Z,23.3
2017-10-03T12:31:12.068Z,23.3
2017-10-03T12:32:14.507Z,23.4
2017-10-03T12:33:16.958Z,23.5
2017-10-03T12:34:19.397Z,23.6
2017-10-03T12:35:21.849Z,23.7
2017-10-03T12:36:24.304Z,23.8
2017-10-03T12:37:26.745Z,23.8
2017-10-03T12:38:29.184Z,23.8
2017-10-03T12:39:31.620Z,23.8
2017-10-03T12:40:34.067Z,23.9
2017-10-03T12:41:36.508Z,24
2017-10-03T12:42:38.945Z,24
2017-10-03T12:43:41.392Z,24
2017-10-03T12:44:43.825Z,24
2017-10-03T12:45:46.273Z,24.1
2017-10-03T12:46:48.721Z,24.1
2017-10-03T12:47:52.770Z,24.1
2017-10-03T12:49:04.552Z,24
2017-10-03T12:50:12.038Z,24
2017-10-03T12:51:24.027Z,23.9
2017-10-03T12:52:29.988Z,23.8
2017-10-03T12:53:45.022Z,23.7
2017-10-03T12:54:52.617Z,23.5
2017-10-03T12:56:01.709Z,23.4
2017-10-03T12:57:09.078Z,23.4
2017-10-03T12:58:14.987Z,23.5
2017-10-03T12:59:18.503Z,23.5
2017-10-03T13:00:23.246Z,23.4
2017-10-03T13:01:28.137Z,23.4
2017-10-03T13:02:35.091Z,23.4
2017-10-03T13:03:42.690Z,23.4
2017-10-03T13:04:47.116Z,23.4
2017-10-03T13:05:51.272Z,23.5
2017-10-03T13:06:57.661Z,23.4
2017-10-03T13:08:01.055Z,23.3
2017-10-03T13:09:04.383Z,23.2
2017-10-03T13:10:07.675Z,23.2
2017-10-03T13:11:10.604Z,23.1
2017-10-03T13:12:13.042Z,23
2017-10-03T13:13:15.491Z,22.9
2017-10-03T13:14:17.930Z,22.9
2017-10-03T13:15:20.382Z,22.8
2017-10-03T13:16:22.824Z,22.6
2017-10-03T13:17:25.265Z,22.5
2017-10-03T13:18:27.699Z,22.4
2017-10-03T13:19:30.145Z,22.3
2017-10-03T13:20:32.568Z,22.2
2017-10-03T13:21:35.017Z,22.1
2017-10-03T13:22:37.464Z,22.1
2017-10-03T13:23:39.893Z,22.2
2017-10-03T13:24:42.345Z,22.2
2017-10-03T13:25:44.779Z,22.3
2017-10-03T13:26:47.217Z,22.3
2017-10-03T13:27:49.675Z,22.4
2017-10-03T13:28:52.109Z,22.5
2017-10-03T13:29:54.537Z,22.6
2017-10-03T13:30:56.991Z,22.6
2017-10-03T13:31:59.426Z,22.7
2017-10-03T13:33:01.872Z,22.7
2017-10-03T13:34:04.318Z,22.6
2017-10-03T13:35:06.754Z,22.5
2017-10-03T13:36:09.204Z,22.5
2017-10-03T13:37:11.645Z,22.4
2017-10-03T13:38:14.084Z,22.4
2017-10-03T13:39:16.863Z,22.4
2017-10-03T13:40:19.299Z,22.4
2017-10-03T13:41:21.751Z,22.5
2017-10-03T13:42:24.539Z,22.6
2017-10-03T13:43:26.975Z,22.7
2017-10-03T13:44:29.418Z,22.8
2017-10-03T13:45:31.859Z,22.9
2017-10-03T13:46:34.301Z,22.9
2017-10-03T13:47:37.086Z,23
2017-10-03T13:48:39.507Z,23
2017-10-03T13:49:41.947Z,23
2017-10-03T13:50:44.396Z,23
2017-10-03T13:51:46.837Z,23
2017-10-03T13:52:49.279Z,23
2017-10-03T13:53:51.718Z,23
2017-10-03T13:54:54.155Z,23
2017-10-03T13:55:56.620Z,23
2017-10-03T13:56:59.111Z,23
2017-10-03T13:58:01.559Z,23.1